Time;durP1;ratioP1;P1;durP2;ratioP2;P2;SDS_P1;SDS_P2;PMS_P1;PMS_P2;Temp;Humidity;BMP_temperature;BMP_pressure;BME280_temperature;BME280_humidity;BME280_pressure;Samples;Min_cycle;Max_cycle;Signal;HPM_P1;HPM_P2
2023/01/09 00:00:28;;;;;;;70.67;42.43;;;;;;;3.71;100.00;101930.31;2097349;28;20230;-62
2023/01/09 00:01:41;;;;;;;82.47;42.80;;;;;;;3.73;100.00;101931.56;2105488;28;20264;-62
2023/01/09 00:02:43;;;;;;;75.65;39.72;;;;;;;3.70;100.00;101936.97;2105790;28;20168;-62
2023/01/09 00:03:44;;;;;;;98.97;42.05;;;;;;;3.62;100.00;101936.00;2097499;28;20585;-62
2023/01/09 00:04:44;;;;;;;147.03;42.73;;;;;;;3.45;100.00;101905.41;2104399;28;20182;-62
2023/01/09 00:05:44;;;;;;;117.20;41.83;;;;;;;3.55;100.00;101930.31;2096268;28;20245;-62
2023/01/09 00:06:52;;;;;;;114.17;42.30;;;;;;;3.53;100.00;101932.63;2092146;28;20185;-62
2023/01/09 00:07:53;;;;;;;74.05;39.58;;;;;;;3.54;100.00;101928.72;2096667;28;20171;-62
2023/01/09 00:08:53;;;;;;;84.83;39.83;;;;;;;3.28;100.00;101881.09;2100283;28;20282;-62
2023/01/09 00:09:53;;;;;;;73.00;38.03;;;;;;;3.55;100.00;101926.78;2103906;28;20175;-62
2023/01/09 00:10:54;;;;;;;82.73;37.10;;;;;;;3.57;100.00;101925.28;2097476;28;20609;-62
2023/01/09 00:11:55;;;;;;;82.83;36.80;;;;;;;3.42;100.00;101906.91;2105662;28;20188;-62
2023/01/09 00:12:55;;;;;;;88.63;37.90;;;;;;;3.59;100.00;101928.47;2097632;28;20230;-62
2023/01/09 00:13:56;;;;;;;111.07;39.97;;;;;;;2.82;100.00;101813.38;2097321;28;20237;-62
2023/01/09 00:14:56;;;;;;;141.83;39.80;;;;;;;3.07;100.00;101861.34;2096801;28;20669;-62
2023/01/09 00:15:58;;;;;;;95.20;37.83;;;;;;;3.46;100.00;101921.50;2097300;28;20595;-62
2023/01/09 00:16:59;;;;;;;84.35;37.20;;;;;;;3.47;100.00;101925.00;2100307;28;20611;-62
2023/01/09 00:17:59;;;;;;;99.17;38.20;;;;;;;3.45;100.00;101936.31;2103692;28;20181;-62
2023/01/09 00:18:59;;;;;;;79.90;37.67;;;;;;;3.15;100.00;101874.91;2096933;28;20214;-62
2023/01/09 00:20:00;;;;;;;76.80;35.17;;;;;;;3.50;100.00;101922.34;2097435;28;20247;-62
2023/01/09 00:21:02;;;;;;;78.87;35.37;;;;;;;2.86;100.00;101836.16;2096782;28;20206;-62
2023/01/09 00:22:05;;;;;;;81.68;34.78;;;;;;;3.48;100.00;101923.84;2097285;28;20560;-62
2023/01/09 00:23:05;;;;;;;76.97;34.70;;;;;;;3.24;100.00;101883.72;2103042;28;20663;-62
2023/01/09 00:24:06;;;;;;;87.17;36.03;;;;;;;3.43;100.00;101905.75;2105637;28;20615;-62
2023/01/09 00:25:08;;;;;;;101.43;36.27;;;;;;;2.97;100.00;101840.75;2104992;28;20190;-62
2023/01/09 00:26:15;;;;;;;97.82;33.45;;;;;;;2.68;100.00;101804.78;2105484;28;20699;-62
2023/01/09 00:27:16;;;;;;;59.42;34.67;;;;;;;3.37;100.00;101922.78;2105442;28;20200;-62
2023/01/09 00:28:16;;;;;;;75.00;35.43;;;;;;;3.39;100.00;101926.78;2104359;28;20171;-62
2023/01/09 00:29:17;;;;;;;96.30;35.63;;;;;;;3.46;100.00;101934.38;2097318;28;20545;-62
2023/01/09 00:30:17;;;;;;;61.63;34.53;;;;;;;3.45;100.00;101932.81;2105206;28;20210;-62
2023/01/09 00:31:17;;;;;;;65.93;35.57;;;;;;;3.38;100.00;101924.41;2105279;28;20187;-62
2023/01/09 00:32:19;;;;;;;79.10;34.67;;;;;;;3.47;100.00;101935.97;2099598;28;20184;-62
2023/01/09 00:33:19;;;;;;;109.10;35.22;;;;;;;3.36;100.00;101924.75;2102048;28;20197;-62
2023/01/09 00:34:20;;;;;;;117.53;35.10;;;;;;;3.34;100.00;101940.72;2101846;28;20195;-62
2023/01/09 00:35:22;;;;;;;67.53;35.23;;;;;;;3.27;100.00;101937.00;2099080;28;20209;-62
2023/01/09 00:36:23;;;;;;;55.22;34.80;;;;;;;3.33;100.00;101938.38;2103918;28;20236;-62
2023/01/09 00:37:23;;;;;;;75.57;38.17;;;;;;;3.30;100.00;101937.13;2097212;28;20228;-62
2023/01/09 00:38:24;;;;;;;69.30;38.63;;;;;;;2.99;100.00;101898.69;2105454;28;20612;-62
2023/01/09 00:39:24;;;;;;;109.87;40.37;;;;;;;3.16;100.00;101931.25;2097909;28;20206;-62
2023/01/09 00:40:25;;;;;;;76.50;40.67;;;;;;;3.25;100.00;101940.13;2103372;28;20272;-62
2023/01/09 00:41:30;;;;;;;75.23;41.03;;;;;;;2.88;100.00;101908.56;2100047;28;20592;-62
2023/01/09 00:42:34;;;;;;;73.80;40.80;;;;;;;3.13;100.00;101917.47;2101518;28;20522;-62
2023/01/09 00:43:50;;;;;;;86.30;40.60;;;;;;;3.34;100.00;101940.72;2101704;28;20548;-62
2023/01/09 00:44:58;;;;;;;71.38;40.53;;;;;;;3.34;100.00;101957.16;2101260;28;20197;-62
2023/01/09 00:46:03;;;;;;;124.30;42.08;;;;;;;2.76;100.00;101862.09;2100445;28;20576;-62
2023/01/09 00:47:32;;;;;;;94.88;42.05;;;;;;;3.23;100.00;101934.19;2100578;28;20205;-62
2023/01/09 00:48:36;;;;;;;86.45;41.20;;;;;;;2.51;100.00;101827.78;2101391;28;20232;-62
2023/01/09 00:49:36;;;;;;;67.65;40.58;;;;;;;2.53;100.00;101830.97;2105598;28;20186;-62
2023/01/09 00:50:37;;;;;;;69.70;41.97;;;;;;;2.54;100.00;101818.06;2100318;28;20191;-62
2023/01/09 00:51:40;;;;;;;81.33;41.37;;;;;;;3.26;100.00;101925.28;2099766;28;20190;-62
2023/01/09 00:52:41;;;;;;;104.03;41.92;;;;;;;3.20;100.00;101921.22;2102663;28;20612;-62
2023/01/09 00:53:42;;;;;;;78.18;40.33;;;;;;;3.35;100.00;101936.06;2098603;28;20205;-62
2023/01/09 00:54:44;;;;;;;82.03;40.57;;;;;;;3.35;100.00;101944.28;2105318;28;20173;-62
2023/01/09 00:55:44;;;;;;;111.88;40.95;;;;;;;3.38;100.00;101930.66;2105427;28;20175;-62
2023/01/09 00:56:45;;;;;;;71.83;39.53;;;;;;;3.34;100.00;101931.72;2097900;28;20208;-62
2023/01/09 00:57:46;;;;;;;147.20;41.83;;;;;;;3.16;100.00;101914.03;2103377;28;20673;-62
2023/01/09 00:58:48;;;;;;;144.27;39.58;;;;;;;3.26;100.00;101925.28;2105234;28;20656;-62
2023/01/09 00:59:48;;;;;;;105.55;41.58;;;;;;;3.21;100.00;101922.78;2105140;28;20629;-62
2023/01/09 01:00:49;;;;;;;127.70;42.47;;;;;;;3.23;100.00;101923.22;2105307;28;20185;-62
2023/01/09 01:01:49;;;;;;;137.83;42.77;;;;;;;2.81;100.00;101859.09;2104764;28;20567;-62
2023/01/09 01:02:49;;;;;;;130.53;41.53;;;;;;;3.16;100.00;101920.31;2105295;28;20170;-62
2023/01/09 01:03:50;;;;;;;111.30;41.37;;;;;;;2.62;100.00;101834.34;2105669;28;20212;-62
2023/01/09 01:07:37;;;;;;;134.60;41.63;;;;;;;3.08;100.00;101918.50;2097075;28;20193;-61
2023/01/09 01:08:37;;;;;;;87.55;40.78;;;;;;;2.74;100.00;101869.88;2097822;28;20198;-62
2023/01/09 01:09:38;;;;;;;117.20;42.30;;;;;;;3.09;100.00;101920.09;2105641;28;20186;-62
2023/01/09 01:10:39;;;;;;;100.53;42.70;;;;;;;3.08;100.00;101913.03;2097311;28;20475;-62
2023/01/09 01:11:39;;;;;;;89.45;42.30;;;;;;;3.01;100.00;101907.38;2103405;28;20191;-62
2023/01/09 01:12:40;;;;;;;111.43;41.53;;;;;;;3.08;100.00;101925.94;2099425;28;20196;-62
2023/01/09 01:13:40;;;;;;;73.67;41.33;;;;;;;3.13;100.00;101918.25;2101437;28;20667;-62
2023/01/09 01:14:41;;;;;;;93.87;40.67;;;;;;;3.16;100.00;101922.25;2101888;28;20253;-62
2023/01/09 01:15:43;;;;;;;121.87;42.03;;;;;;;3.19;100.00;101933.28;2096772;28;20193;-62
2023/01/09 01:16:44;;;;;;;72.88;42.00;;;;;;;3.00;100.00;101878.41;2096918;28;20166;-62
2023/01/09 01:17:44;;;;;;;86.53;41.50;;;;;;;2.48;100.00;101792.94;2088276;28;20182;-62
2023/01/09 01:18:45;;;;;;;101.50;41.53;;;;;;;3.26;100.00;101902.53;2088314;28;20186;-62
2023/01/09 01:19:45;;;;;;;126.63;40.57;;;;;;;3.24;100.00;101904.84;2105763;28;20184;-62
2023/01/09 01:20:46;;;;;;;108.23;42.60;;;;;;;3.20;100.00;101904.78;2101137;28;20274;-62
2023/01/09 01:21:46;;;;;;;171.33;43.73;;;;;;;3.06;100.00;101889.88;2098157;28;20187;-62
2023/01/09 01:22:47;;;;;;;168.77;44.50;;;;;;;3.12;100.00;101907.66;2102103;28;20230;-62
2023/01/09 01:23:47;;;;;;;187.50;43.87;;;;;;;3.13;100.00;101896.34;2106947;28;20249;-62
2023/01/09 01:24:48;;;;;;;151.73;41.23;;;;;;;2.95;100.00;101880.59;2106696;28;20183;-62
2023/01/09 01:25:48;;;;;;;164.90;40.37;;;;;;;2.61;100.00;101834.69;2106825;28;20544;-62
2023/01/09 01:26:48;;;;;;;90.23;40.00;;;;;;;3.04;100.00;101894.94;2106881;28;20188;-62
2023/01/09 01:27:49;;;;;;;85.83;39.43;;;;;;;3.07;100.00;101892.28;2099935;28;20631;-62
2023/01/09 01:28:50;;;;;;;90.93;40.60;;;;;;;2.30;100.00;101758.81;2104468;28;20220;-62
2023/01/09 01:29:50;;;;;;;88.27;38.53;;;;;;;3.20;100.00;101899.28;2102378;28;20452;-62
2023/01/09 01:30:51;;;;;;;79.33;39.80;;;;;;;2.59;100.00;101791.25;2101930;28;20247;-62
2023/01/09 01:31:51;;;;;;;92.50;40.20;;;;;;;3.29;100.00;101897.16;2104257;28;20172;-62
2023/01/09 01:32:52;;;;;;;83.97;38.83;;;;;;;3.32;100.00;101892.91;2099361;28;20180;-62
2023/01/09 01:33:52;;;;;;;106.40;39.60;;;;;;;3.32;100.00;101890.97;2107042;28;20275;-62
2023/01/09 01:34:52;;;;;;;95.07;38.80;;;;;;;3.20;100.00;101882.84;2098469;28;20201;-62
2023/01/09 01:36:01;;;;;;;62.90;38.70;;;;;;;3.26;100.00;101888.84;2105393;28;20186;-62
2023/01/09 01:37:01;;;;;;;77.45;39.00;;;;;;;2.90;100.00;101835.13;2100090;28;20244;-62
2023/01/09 01:38:02;;;;;;;117.57;38.57;;;;;;;3.32;100.00;101893.72;2104045;28;20198;-62
2023/01/09 01:39:03;;;;;;;93.72;39.78;;;;;;;3.35;100.00;101890.28;2102418;28;20194;-62
2023/01/09 01:40:06;;;;;;;137.40;39.57;;;;;;;3.35;100.00;101894.97;2101661;28;20197;-61
2023/01/09 01:41:06;;;;;;;93.93;39.47;;;;;;;2.58;100.00;101753.28;2106176;28;20594;-62
2023/01/09 01:42:07;;;;;;;201.30;44.90;;;;;;;3.16;100.00;101851.81;2105737;28;20286;-62
2023/01/09 01:43:11;;;;;;;152.57;41.80;;;;;;;3.26;100.00;101866.94;2098437;28;20179;-62
2023/01/09 01:44:48;;;;;;;94.55;40.40;;;;;;;3.32;100.00;101880.03;2098510;28;20574;-62
2023/01/09 01:45:49;;;;;;;127.35;39.80;;;;;;;3.24;100.00;101871.97;2101392;28;20186;-62
2023/01/09 01:46:52;;;;;;;119.77;40.83;;;;;;;2.80;100.00;101805.50;2104702;28;20178;-62
2023/01/09 01:48:01;;;;;;;155.07;45.20;;;;;;;3.24;100.00;101874.72;2099328;28;20173;-62
2023/01/09 01:49:15;;;;;;;93.57;40.58;;;;;;;3.25;100.00;101885.34;2105471;28;20570;-62
2023/01/09 01:50:39;;;;;;;128.50;41.10;;;;;;;3.29;100.00;101888.94;2100124;28;20161;-62
2023/01/09 01:51:43;;;;;;;71.53;38.63;;;;;;;3.08;100.00;101830.09;2106429;28;20229;-62
2023/01/09 01:52:51;;;;;;;105.70;40.83;;;;;;;3.38;100.00;101878.59;2103616;28;20201;-62
2023/01/09 01:53:56;;;;;;;123.25;40.45;;;;;;;3.41;100.00;101871.63;2101289;28;20255;-62
2023/01/09 01:54:57;;;;;;;141.00;40.45;;;;;;;3.44;100.00;101888.16;2103954;28;20660;-62
2023/01/09 01:56:17;;;;;;;84.67;39.73;;;;;;;3.44;100.00;101874.44;2099564;28;20593;-62
2023/01/09 01:57:18;;;;;;;107.25;39.13;;;;;;;3.34;100.00;101857.75;2089531;28;20191;-62
2023/01/09 01:58:19;;;;;;;103.50;39.53;;;;;;;3.45;100.00;101869.78;2099774;28;20168;-62
2023/01/09 01:59:49;;;;;;;102.93;38.85;;;;;;;3.48;100.00;101869.03;2106313;28;20178;-62
2023/01/09 02:00:49;;;;;;;141.07;38.42;;;;;;;3.47;100.00;101864.72;2099981;28;20215;-62
2023/01/09 02:01:53;;;;;;;123.90;39.50;;;;;;;3.09;100.00;101812.50;2103811;28;20176;-62
2023/01/09 02:02:53;;;;;;;125.10;39.67;;;;;;;3.44;100.00;101874.44;2098259;28;20231;-62
2023/01/09 02:03:56;;;;;;;114.53;41.87;;;;;;;3.44;100.00;101873.66;2098701;28;20179;-62
2023/01/09 02:04:58;;;;;;;173.35;42.22;;;;;;;3.44;100.00;101870.94;2097287;28;20219;-62
2023/01/09 02:06:00;;;;;;;196.73;44.30;;;;;;;3.04;100.00;101813.53;2090094;28;20247;-62
2023/01/09 02:07:04;;;;;;;183.77;43.38;;;;;;;2.94;100.00;101814.09;2098228;28;20289;-62
2023/01/09 02:08:06;;;;;;;263.50;45.55;;;;;;;3.32;100.00;101862.78;2104544;28;20285;-62
2023/01/09 02:09:07;;;;;;;218.13;48.92;;;;;;;3.26;100.00;101870.47;2101287;28;20212;-62
2023/01/09 02:10:08;;;;;;;226.07;48.42;;;;;;;2.83;100.00;101806.75;2102291;28;20699;-62
2023/01/09 02:11:11;;;;;;;128.18;44.85;;;;;;;3.24;100.00;101866.50;2105971;28;20195;-62
2023/01/09 02:12:14;;;;;;;134.35;47.30;;;;;;;3.29;100.00;101868.97;2104594;28;20183;-62
2023/01/09 02:13:15;;;;;;;117.45;46.92;;;;;;;3.18;100.00;101849.53;2099168;28;20187;-62
2023/01/09 02:14:15;;;;;;;140.10;47.70;;;;;;;3.34;100.00;101863.22;2106497;28;20178;-62
2023/01/09 02:15:18;;;;;;;159.03;48.37;;;;;;;3.13;100.00;101833.34;2106482;28;20245;-62
2023/01/09 02:16:52;;;;;;;173.98;46.97;;;;;;;3.30;100.00;101854.13;2106374;28;20182;-62
2023/01/09 02:18:10;;;;;;;202.90;47.45;;;;;;;3.22;100.00;101853.16;2099610;28;20481;-62
2023/01/09 02:19:35;;;;;;;168.73;45.70;;;;;;;3.23;100.00;101856.69;2103975;28;20168;-62
2023/01/09 02:20:57;;;;;;;141.93;45.00;;;;;;;3.15;100.00;101860.38;2102886;28;20190;-62
2023/01/09 02:22:13;;;;;;;190.80;45.78;;;;;;;3.06;100.00;101866.03;2100156;28;20215;-62
2023/01/09 02:23:35;;;;;;;187.63;45.78;;;;;;;3.10;100.00;101860.66;2105536;28;20196;-62
2023/01/09 02:25:12;;;;;;;163.95;43.17;;;;;;;3.05;100.00;101848.03;2099526;28;20167;-62
2023/01/09 02:26:57;;;;;;;258.35;46.55;;;;;;;2.96;100.00;101847.38;2101401;28;20188;-62
2023/01/09 02:28:16;;;;;;;151.27;44.10;;;;;;;2.94;100.00;101846.97;2072533;28;20193;-62
2023/01/09 02:29:40;;;;;;;165.98;46.35;;;;;;;2.89;100.00;101839.00;2083489;28;20546;-62
2023/01/09 02:30:44;;;;;;;161.55;46.40;;;;;;;2.38;100.00;101781.69;2103204;28;20653;-62
2023/01/09 02:31:52;;;;;;;169.05;48.17;;;;;;;2.78;100.00;101853.53;2097920;28;20259;-62
2023/01/09 02:33:01;;;;;;;149.52;44.88;;;;;;;2.80;100.00;101845.75;2106329;28;20182;-62
2023/01/09 02:34:14;;;;;;;211.25;48.80;;;;;;;2.68;100.00;101835.66;2104928;28;20172;-62
2023/01/09 02:35:48;;;;;;;267.23;49.40;;;;;;;2.90;100.00;101854.28;2099610;28;20161;-62
2023/01/09 02:37:03;;;;;;;237.25;46.85;;;;;;;2.87;100.00;101838.53;2101050;28;20184;-62
2023/01/09 02:38:21;;;;;;;186.15;46.10;;;;;;;2.82;100.00;101840.75;2104195;28;20186;-61
2023/01/09 02:39:45;;;;;;;144.73;43.78;;;;;;;2.79;100.00;101841.44;2099321;28;20723;-62
2023/01/09 02:41:19;;;;;;;189.13;46.35;;;;;;;2.85;100.00;101842.78;2098310;28;20629;-62
2023/01/09 02:42:24;;;;;;;145.30;44.20;;;;;;;2.94;100.00;101836.00;2101131;28;20236;-62
2023/01/09 02:43:25;;;;;;;188.40;46.10;;;;;;;2.99;100.00;101837.69;2103766;28;20183;-62
2023/01/09 02:44:28;;;;;;;150.13;46.30;;;;;;;3.02;100.00;101835.03;2099536;28;20187;-62
2023/01/09 02:45:29;;;;;;;175.32;48.90;;;;;;;2.98;100.00;101836.88;2105098;28;20175;-62
2023/01/09 02:46:29;;;;;;;250.87;48.50;;;;;;;2.42;100.00;101760.69;2098113;28;20188;-62
2023/01/09 02:47:36;;;;;;;255.33;51.03;;;;;;;2.93;100.00;101830.88;2105796;28;20292;-61
2023/01/09 02:48:37;;;;;;;277.90;47.75;;;;;;;2.87;100.00;101829.53;2104798;28;20252;-62
2023/01/09 02:49:38;;;;;;;218.67;47.67;;;;;;;2.88;100.00;101817.44;2100074;28;20192;-62
2023/01/09 02:50:59;;;;;;;167.27;45.25;;;;;;;2.99;100.00;101832.97;2097707;28;20256;-62
2023/01/09 02:52:13;;;;;;;172.77;45.67;;;;;;;2.89;100.00;101808.88;2104333;28;20209;-62
2023/01/09 02:53:44;;;;;;;188.00;45.65;;;;;;;3.05;100.00;101828.84;2098630;28;20195;-62
2023/01/09 02:54:44;;;;;;;271.63;48.10;;;;;;;3.04;100.00;101831.94;2088976;28;20184;-62
2023/01/09 02:56:09;;;;;;;213.90;46.60;;;;;;;3.03;100.00;101828.41;2088905;28;20169;-62
2023/01/09 02:57:35;;;;;;;221.07;46.25;;;;;;;3.07;100.00;101818.34;2105531;28;20168;-62
2023/01/09 02:59:17;;;;;;;137.30;46.95;;;;;;;3.02;100.00;101818.59;2101414;28;20169;-62
2023/01/09 03:00:57;;;;;;;195.63;45.22;;;;;;;3.08;100.00;101814.44;2060213;28;20293;-62
2023/01/09 03:02:06;;;;;;;175.85;42.65;;;;;;;3.05;100.00;101817.91;2070732;28;20194;-62
2023/01/09 03:03:13;;;;;;;176.13;45.38;;;;;;;2.30;100.00;101690.41;2101822;28;20721;-62
2023/01/09 03:04:43;;;;;;;139.10;43.83;;;;;;;2.71;100.00;101757.53;2099449;28;20176;-62
2023/01/09 03:06:00;;;;;;;183.65;44.95;;;;;;;3.14;100.00;101814.97;2097402;28;20169;-62
2023/01/09 03:07:15;;;;;;;172.52;43.05;;;;;;;2.42;100.00;101725.91;2089817;28;20180;-62
2023/01/09 03:08:24;;;;;;;177.63;42.35;;;;;;;3.16;100.00;101818.16;2097359;28;20172;-62
2023/01/09 03:09:28;;;;;;;109.68;40.35;;;;;;;3.18;100.00;101819.38;2099886;28;20167;-62
2023/01/09 03:10:40;;;;;;;147.90;42.65;;;;;;;3.23;100.00;101816.38;2096916;28;20191;-62
2023/01/09 03:11:48;;;;;;;166.15;43.90;;;;;;;2.90;100.00;101758.44;2096708;28;20195;-61
2023/01/09 03:12:53;;;;;;;180.82;43.53;;;;;;;3.24;100.00;101815.22;2097599;28;20554;-62
2023/01/09 03:13:55;;;;;;;113.15;42.67;;;;;;;3.27;100.00;101814.53;2098224;28;20172;-62
2023/01/09 03:14:58;;;;;;;128.15;43.85;;;;;;;2.83;100.00;101732.84;2105817;28;20171;-62
2023/01/09 03:16:05;;;;;;;92.75;42.85;;;;;;;3.32;100.00;101800.56;2106417;28;20180;-62
2023/01/09 03:17:11;;;;;;;120.28;43.38;;;;;;;3.09;100.00;101749.50;2097955;28;20172;-62
2023/01/09 03:18:14;;;;;;;101.93;41.63;;;;;;;3.45;100.00;101804.00;2097682;28;20726;-62
2023/01/09 03:19:19;;;;;;;98.45;43.10;;;;;;;3.49;100.00;101810.38;2097745;28;20196;-62
2023/01/09 03:20:26;;;;;;;104.20;42.85;;;;;;;3.51;100.00;101806.13;2104351;28;20281;-62
2023/01/09 03:21:27;;;;;;;84.72;40.08;;;;;;;3.55;100.00;101796.00;2105559;28;20239;-62
2023/01/09 03:22:28;;;;;;;133.68;43.03;;;;;;;3.59;100.00;101802.38;2105959;28;20307;-62
2023/01/09 03:23:48;;;;;;;140.53;43.67;;;;;;;3.59;100.00;101807.84;2097058;28;20203;-62
2023/01/09 03:24:48;;;;;;;120.85;41.63;;;;;;;3.62;100.00;101807.16;2099496;28;20278;-62
2023/01/09 03:25:49;;;;;;;148.50;41.83;;;;;;;3.55;100.00;101798.75;2101687;28;20182;-61
2023/01/09 03:26:50;;;;;;;109.17;42.27;;;;;;;3.58;100.00;101800.78;2097521;28;20336;-62
2023/01/09 03:27:56;;;;;;;141.18;43.78;;;;;;;3.50;100.00;101788.06;2099428;28;20184;-62
2023/01/09 03:28:57;;;;;;;137.25;42.97;;;;;;;3.54;100.00;101799.91;2104536;28;20251;-62
2023/01/09 03:29:58;;;;;;;129.93;43.60;;;;;;;3.56;100.00;101802.31;2097739;28;20592;-62
2023/01/09 03:30:58;;;;;;;115.23;43.77;;;;;;;3.59;100.00;101807.09;2097274;28;20181;-62
2023/01/09 03:31:59;;;;;;;136.20;43.27;;;;;;;3.51;100.00;101786.94;2097781;28;20228;-62
2023/01/09 03:32:59;;;;;;;146.87;44.87;;;;;;;3.61;100.00;101804.75;2103783;28;20184;-62
2023/01/09 03:34:00;;;;;;;117.93;44.20;;;;;;;3.55;100.00;101793.28;2105884;28;20226;-62
2023/01/09 03:35:01;;;;;;;213.93;43.87;;;;;;;3.44;100.00;101773.06;2101533;28;20191;-62
2023/01/09 03:36:02;;;;;;;85.35;42.55;;;;;;;3.64;100.00;101809.53;2097549;28;20186;-62
2023/01/09 03:37:03;;;;;;;88.75;41.10;;;;;;;3.52;100.00;101780.28;2097383;28;20570;-62
2023/01/09 03:38:04;;;;;;;108.20;42.35;;;;;;;3.73;100.00;101810.13;2098048;28;20186;-62
2023/01/09 03:39:04;;;;;;;112.57;42.27;;;;;;;3.73;100.00;101805.44;2106093;28;20180;-62
2023/01/09 03:40:05;;;;;;;112.17;41.90;;;;;;;3.73;100.00;101801.91;2098428;28;20200;-62
2023/01/09 03:41:06;;;;;;;102.60;42.50;;;;;;;3.72;100.00;101792.91;2103356;28;20201;-62
2023/01/09 03:42:06;;;;;;;98.07;42.93;;;;;;;3.73;100.00;101799.16;2100138;28;20196;-62
2023/01/09 03:43:07;;;;;;;153.43;44.27;;;;;;;3.56;100.00;101772.97;2100729;28;20224;-62
2023/01/09 03:44:07;;;;;;;159.23;44.17;;;;;;;3.63;100.00;101789.56;2102917;28;20569;-62
2023/01/09 03:45:08;;;;;;;192.43;45.07;;;;;;;3.61;100.00;101791.88;2098533;28;20251;-62
2023/01/09 03:46:09;;;;;;;113.77;44.77;;;;;;;3.29;100.00;101741.00;2105332;28;20180;-62
2023/01/09 03:47:09;;;;;;;94.87;43.50;;;;;;;3.63;100.00;101799.72;2088742;28;20653;-61
2023/01/09 03:48:09;;;;;;;100.93;45.37;;;;;;;3.45;100.00;101769.16;2096051;28;20671;-61
2023/01/09 03:49:10;;;;;;;113.70;45.70;;;;;;;3.69;100.00;101804.56;2105910;28;20262;-62
2023/01/09 03:50:10;;;;;;;95.33;43.60;;;;;;;3.21;100.00;101727.50;2105849;28;20663;-62
2023/01/09 03:51:11;;;;;;;117.67;44.53;;;;;;;3.70;100.00;101803.41;2101059;28;20284;-62
2023/01/09 03:52:12;;;;;;;148.23;45.20;;;;;;;3.68;100.00;101797.50;2100292;28;20279;-62
2023/01/09 03:53:13;;;;;;;94.82;45.65;;;;;;;3.68;100.00;101805.72;2104048;28;20189;-62
2023/01/09 03:54:13;;;;;;;121.10;45.43;;;;;;;3.65;100.00;101800.94;2097231;28;20238;-62
2023/01/09 03:55:14;;;;;;;117.93;44.63;;;;;;;3.66;100.00;101799.00;2097178;28;20585;-62
2023/01/09 03:56:14;;;;;;;99.63;46.07;;;;;;;3.71;100.00;101790.50;2097405;28;20701;-62
2023/01/09 03:57:15;;;;;;;97.33;45.37;;;;;;;3.34;100.00;101729.75;2097508;28;20199;-62
2023/01/09 03:58:17;;;;;;;90.67;43.73;;;;;;;3.78;100.00;101788.72;2097378;28;20716;-62
2023/01/09 03:59:17;;;;;;;105.97;45.33;;;;;;;3.80;100.00;101796.59;2097469;28;20258;-62
2023/01/09 04:00:20;;;;;;;114.90;45.57;;;;;;;3.72;100.00;101781.13;2097290;28;20193;-62
2023/01/09 04:01:21;;;;;;;92.63;44.42;;;;;;;3.77;100.00;101791.81;2098947;28;20262;-62
2023/01/09 04:02:21;;;;;;;112.07;46.40;;;;;;;3.71;100.00;101772.13;2105461;28;20172;-62
2023/01/09 04:03:22;;;;;;;93.57;44.00;;;;;;;3.86;100.00;101787.69;2106062;28;20629;-62
2023/01/09 04:04:22;;;;;;;82.37;44.57;;;;;;;3.91;100.00;101781.94;2096188;28;20274;-62
2023/01/09 04:05:23;;;;;;;92.60;44.90;;;;;;;3.92;100.00;101783.56;2088052;28;20185;-62
2023/01/09 04:06:23;;;;;;;97.93;44.53;;;;;;;3.93;100.00;101774.16;2096667;28;20286;-62
2023/01/09 04:07:23;;;;;;;116.50;46.63;;;;;;;3.93;100.00;101776.91;2105577;28;20728;-62
2023/01/09 04:08:24;;;;;;;93.07;45.10;;;;;;;3.95;100.00;101777.31;2102427;28;20201;-62
2023/01/09 04:09:24;;;;;;;98.63;44.63;;;;;;;3.96;100.00;101789.09;2097290;28;20176;-62
2023/01/09 04:10:25;;;;;;;104.57;45.70;;;;;;;3.95;100.00;101787.53;2097117;28;20620;-62
2023/01/09 04:11:25;;;;;;;90.97;44.40;;;;;;;3.94;100.00;101792.19;2096951;28;20176;-62
2023/01/09 04:12:26;;;;;;;122.63;46.07;;;;;;;3.96;100.00;101795.38;2097098;28;20278;-62
2023/01/09 04:13:26;;;;;;;116.43;43.93;;;;;;;3.86;100.00;101778.69;2097541;28;20188;-62
2023/01/09 04:14:26;;;;;;;99.23;43.20;;;;;;;3.97;100.00;101793.44;2102604;28;20272;-62
2023/01/09 04:15:27;;;;;;;197.50;47.90;;;;;;;3.79;100.00;101812.22;2105371;28;20284;-62
2023/01/09 04:16:28;;;;;;;91.70;45.40;;;;;;;3.80;100.00;101805.59;2102295;28;20195;-62
2023/01/09 04:17:28;;;;;;;86.73;44.13;;;;;;;3.80;100.00;101805.59;2099225;28;20559;-62
2023/01/09 04:18:28;;;;;;;96.47;45.13;;;;;;;3.81;100.00;101803.66;2105429;28;20190;-62
2023/01/09 04:19:29;;;;;;;85.70;42.23;;;;;;;3.42;100.00;101741.69;2105913;28;20657;-62
2023/01/09 04:20:30;;;;;;;74.87;43.57;;;;;;;3.84;100.00;101808.44;2097602;28;20563;-62
2023/01/09 04:21:30;;;;;;;84.03;44.73;;;;;;;3.86;100.00;101806.91;2103637;28;20195;-62
2023/01/09 04:22:31;;;;;;;95.60;43.50;;;;;;;3.87;100.00;101807.69;2100018;28;20580;-62
2023/01/09 04:23:31;;;;;;;76.73;42.97;;;;;;;3.93;100.00;101803.53;2101422;28;20684;-62
2023/01/09 04:24:32;;;;;;;103.87;43.80;;;;;;;3.81;100.00;101788.00;2103096;28;20197;-62
2023/01/09 04:25:32;;;;;;;100.60;42.47;;;;;;;3.32;100.00;101712.91;2103326;28;20177;-62
2023/01/09 04:26:32;;;;;;;91.23;42.83;;;;;;;3.87;100.00;101796.75;2097640;28;20189;-62
2023/01/09 04:27:33;;;;;;;104.47;44.53;;;;;;;3.67;100.00;101773.19;2105777;28;20248;-62
2023/01/09 04:28:33;;;;;;;107.73;44.07;;;;;;;3.82;100.00;101795.06;2105548;28;20382;-62
2023/01/09 04:29:34;;;;;;;109.73;44.00;;;;;;;3.83;100.00;101804.09;2099232;28;20530;-62
2023/01/09 04:30:34;;;;;;;100.13;42.33;;;;;;;3.80;100.00;101802.06;2102300;28;20189;-62
2023/01/09 04:31:37;;;;;;;110.47;44.20;;;;;;;3.75;100.00;101788.66;2101008;28;20217;-62
2023/01/09 04:32:38;;;;;;;162.15;43.85;;;;;;;3.25;100.00;101720.97;2097079;28;20931;-62
2023/01/09 04:33:38;;;;;;;98.67;43.50;;;;;;;3.28;100.00;101736.66;2097219;28;20274;-62
2023/01/09 04:34:39;;;;;;;80.40;44.67;;;;;;;3.74;100.00;101789.81;2097742;28;20554;-62
2023/01/09 04:35:39;;;;;;;84.60;42.13;;;;;;;3.25;100.00;101709.19;2105506;28;20802;-62
2023/01/09 04:36:41;;;;;;;83.57;43.50;;;;;;;3.82;100.00;101800.56;2105582;28;20198;-62
2023/01/09 04:37:42;;;;;;;99.47;43.10;;;;;;;3.82;100.00;101786.03;2105268;28;20188;-61
2023/01/09 04:38:42;;;;;;;88.00;41.93;;;;;;;3.63;100.00;101786.81;2099800;28;20197;-61
2023/01/09 04:39:43;;;;;;;70.73;41.77;;;;;;;2.92;100.00;101641.16;2097187;28;20291;-62
2023/01/09 04:40:47;;;;;;;84.43;42.17;;;;;;;3.88;100.00;101781.88;2097125;28;20260;-62
2023/01/09 04:41:47;;;;;;;80.38;41.90;;;;;;;3.10;100.00;101658.78;2096511;28;20199;-62
2023/01/09 04:42:48;;;;;;;81.60;41.77;;;;;;;3.89;100.00;101791.66;2097116;28;20172;-62
2023/01/09 04:43:48;;;;;;;114.97;42.23;;;;;;;3.92;100.00;101789.03;2097183;28;20192;-62
2023/01/09 04:44:52;;;;;;;81.30;41.53;;;;;;;3.86;100.00;101782.22;2096767;28;20188;-62
2023/01/09 04:45:53;;;;;;;92.03;41.60;;;;;;;3.91;100.00;101787.41;2096995;28;20191;-62
2023/01/09 04:46:55;;;;;;;140.57;43.40;;;;;;;3.89;100.00;101784.25;2103863;28;20209;-62
2023/01/09 04:47:55;;;;;;;111.85;43.30;;;;;;;3.02;100.00;101657.03;2100044;28;20659;-62
2023/01/09 04:48:56;;;;;;;124.30;44.93;;;;;;;3.79;100.00;101789.53;2100571;28;20626;-62
2023/01/09 04:49:56;;;;;;;142.10;46.37;;;;;;;3.49;100.00;101747.34;2097095;28;20210;-62
2023/01/09 04:50:56;;;;;;;85.53;43.57;;;;;;;3.75;100.00;101781.19;2096484;28;20228;-62
2023/01/09 04:51:57;;;;;;;84.57;44.13;;;;;;;3.43;100.00;101724.88;2098190;28;20259;-62
2023/01/09 04:52:58;;;;;;;77.07;43.13;;;;;;;3.81;100.00;101774.31;2105207;28;20176;-61
2023/01/09 04:53:58;;;;;;;83.53;43.80;;;;;;;3.77;100.00;101786.31;2105273;28;20184;-62